Meteo Giornale » Osservazioni meteo Iran » Bandar Mahshahr
ore: 09:30 - Osservazioni Meteo Bandar Mahshahr
Lat. 30° 33' N Lon. 49° 12' E Alt. 4 metri s.l.m.
38 °C
Sereno
Temp. 24 Ore
29 °C
47 °C
Nord/NOvest
27.8 Km/h
Dew point 7 °C
Umidità 15 %
Visibilità 10 Km
Il sole sorge alle ore 05:49
Il sole tramonta alle ore 18:36
| Data e Ora | Cielo e Fenomeni | T °C | DP °C | Um. % | Pres. hPa | Vis. km | Vento km/h | |
|---|---|---|---|---|---|---|---|---|
| Oggi h: 09:30 | Sereno | 38 | 7 | 15 | 1004 | 10 | N/NO 27.8 | |
| Oggi h: 08:30 | Sereno | 36 | 9 | 19 | 1003 | 10 | N 24 | |
| Oggi h: 07:30 | Sereno | 31 | 8 | 23 | 1003 | 10 | N 18.5 | |
| Oggi h: 06:30 | Sereno | 29 | 7 | 25 | 1003 | 10 | N 18.5 | |
| Oggi h: 05:30 | Sereno | 29 | 6 | 23 | 1003 | 10 | N/NO 18.5 | |
| Oggi h: 04:30 | Sereno | 30 | 5 | 20 | 1003 | 10 | N 16.7 | |
| Oggi h: 03:30 | Sereno | 31 | 6 | 20 | 1002 | 10 | N/NO 22.2 | |
| Oggi h: 02:30 | Sereno | 32 | 5 | 18 | 1002 | 10 | N/NO 20.3 | |
| Oggi h: 01:30 | Sereno | 32 | 6 | 19 | 1002 | 10 | N/NO 18.5 | |
| Oggi h: 00:30 | Sereno | 34 | 6 | 17 | 1002 | 10 | E 24 | |
| Ieri h: 23:30 | Sereno | 34 | 7 | 18 | 1002 | 10 | NO 25.9 | |
| Ieri h: 22:30 | Sereno | 35 | 7 | 17 | 1002 | 10 | NO 29.6 | |
| Ieri h: 21:30 | Sereno | 35 | 10 | 21 | 1002 | 10 | NO 18.5 | |
| Ieri h: 20:30 | Sereno | 37 | 10 | 19 | 1001 | 10 | NO 16.7 | |
| Ieri h: 19:30 | Sereno | 41 | 9 | 14 | 1001 | 10 | NO 18.5 | |
| Ieri h: 18:30 | Sereno | 42 | 6 | 11 | 1000 | 10 | NO 27.8 | |
| Ieri h: 17:30 | Sereno | 45 | 1 | 6 | 1000 | 10 | NO 31.5 | |
| Ieri h: 16:30 | Sereno | 46 | 1 | 6 | 1000 | 10 | N/NO 33.3 | |
| Ieri h: 15:30 | Sereno | 47 | 1 | 6 | 1001 | 10 | NO 31.5 | |
| Ieri h: 14:30 | Sereno | 47 | 2 | 6 | 1001 | 10 | NO 29.6 | |
| Ieri h: 13:30 | Sereno | 46 | 4 | 8 | 1001 | 10 | N/NO 27.8 | |
| Ieri h: 12:30 | Sereno | 46 | 6 | 9 | 1002 | 10 | NO 29.6 | |
| Ieri h: 11:30 | Sereno | 46 | 2 | 6 | 1002 | 10 | N/NO 27.8 | |



